createdAt,value
2019-04-26T00:02:16.154Z,999.72
2019-04-26T00:05:16.474Z,999.86
2019-04-26T00:08:15.996Z,999.84
2019-04-26T00:11:16.122Z,999.80
2019-04-26T00:14:16.286Z,999.80
2019-04-26T00:17:15.911Z,999.82
2019-04-26T00:20:17.005Z,999.79
2019-04-26T00:23:16.141Z,999.75
2019-04-26T00:26:15.809Z,999.64
2019-04-26T00:29:16.825Z,999.56
2019-04-26T00:32:15.755Z,999.56
2019-04-26T00:35:15.732Z,999.48
2019-04-26T00:38:16.083Z,999.37
2019-04-26T00:41:16.374Z,999.42
2019-04-26T00:44:16.567Z,999.34
2019-04-26T00:47:15.588Z,999.16
2019-04-26T00:50:15.552Z,999.24
2019-04-26T00:53:16.078Z,999.28
2019-04-26T00:56:15.936Z,999.22
2019-04-26T00:59:16.386Z,999.12
2019-04-26T01:02:16.595Z,999.17
2019-04-26T01:05:16.075Z,999.34
2019-04-26T01:08:15.809Z,999.31
2019-04-26T01:11:16.287Z,999.40
2019-04-26T01:14:24.164Z,999.45
2019-04-26T01:17:16.156Z,999.43
2019-04-26T01:20:16.115Z,999.42
2019-04-26T01:23:15.195Z,999.46
2019-04-26T01:26:15.159Z,999.49
2019-04-26T01:29:15.153Z,999.55
2019-04-26T01:32:15.091Z,999.53
2019-04-26T01:35:15.071Z,999.53
2019-04-26T01:38:15.036Z,999.58
2019-04-26T01:41:15.014Z,999.55
2019-04-26T01:44:14.956Z,999.61
2019-04-26T01:47:14.942Z,999.69
2019-04-26T01:50:14.898Z,999.79
2019-04-26T01:53:14.887Z,999.75
2019-04-26T01:56:14.870Z,999.83
2019-04-26T01:59:14.796Z,999.64
2019-04-26T02:02:14.778Z,999.62
2019-04-26T02:05:14.735Z,999.70
2019-04-26T02:08:14.716Z,999.74
2019-04-26T02:11:14.680Z,999.84
2019-04-26T02:14:14.653Z,999.82
2019-04-26T02:17:14.618Z,999.88
2019-04-26T02:20:14.578Z,999.88
2019-04-26T02:23:14.537Z,999.88
2019-04-26T02:26:14.524Z,999.89
2019-04-26T02:29:14.476Z,999.93
2019-04-26T02:32:14.510Z,999.97
2019-04-26T02:35:14.419Z,1000.03
2019-04-26T02:38:14.380Z,999.96
2019-04-26T02:41:14.363Z,999.97
2019-04-26T02:44:14.315Z,999.94
2019-04-26T02:47:14.292Z,1000.10
2019-04-26T02:50:14.252Z,1000.16
2019-04-26T02:53:14.234Z,1000.27
2019-04-26T02:56:14.184Z,1000.26
2019-04-26T02:59:14.291Z,1000.35
2019-04-26T03:02:14.126Z,1000.35
2019-04-26T03:05:14.090Z,1000.31
2019-04-26T03:08:14.070Z,1000.31
2019-04-26T03:11:17.326Z,1000.25
2019-04-26T03:14:14.005Z,1000.35
2019-04-26T03:17:13.957Z,1000.52
2019-04-26T03:20:13.943Z,1000.38
2019-04-26T03:23:13.903Z,1000.15
2019-04-26T03:26:13.910Z,1000.05
2019-04-26T03:29:13.851Z,999.90
2019-04-26T03:32:16.543Z,999.97
2019-04-26T03:35:13.789Z,999.98
2019-04-26T03:38:13.727Z,1000.01
2019-04-26T03:41:13.718Z,1000.20
2019-04-26T03:44:13.660Z,1000.08
2019-04-26T03:47:13.648Z,999.83
2019-04-26T03:50:13.623Z,999.61
2019-04-26T03:53:13.569Z,999.64
2019-04-26T03:56:13.542Z,999.91
2019-04-26T03:59:13.661Z,1000.02
2019-04-26T04:02:13.503Z,1000.20
2019-04-26T04:05:13.436Z,1000.32
2019-04-26T04:08:13.421Z,1000.49
2019-04-26T04:11:13.392Z,1000.52
2019-04-26T04:14:13.427Z,1000.48
2019-04-26T04:17:13.310Z,1000.52
2019-04-26T04:20:13.288Z,1000.51
2019-04-26T04:23:13.249Z,1000.39
2019-04-26T04:26:13.214Z,1000.09
2019-04-26T04:29:13.188Z,1000.50
2019-04-26T04:32:13.154Z,1000.58
2019-04-26T04:35:13.128Z,1000.68
2019-04-26T04:38:13.090Z,1000.71
2019-04-26T04:41:13.058Z,1000.89
2019-04-26T04:44:13.042Z,1000.79
2019-04-26T04:47:23.701Z,1000.75
2019-04-26T04:50:13.961Z,1000.54
2019-04-26T04:53:12.926Z,1000.58
2019-04-26T04:56:12.885Z,1000.64
2019-04-26T04:59:12.871Z,1000.67
2019-04-26T05:02:12.818Z,1000.62
2019-04-26T05:05:12.796Z,1000.57
2019-04-26T05:08:12.771Z,1000.63
2019-04-26T05:11:12.722Z,1000.60
2019-04-26T05:14:12.723Z,1000.63
2019-04-26T05:17:12.666Z,1000.74
2019-04-26T05:20:12.649Z,1000.69
2019-04-26T05:23:12.598Z,1000.73
2019-04-26T05:26:12.613Z,1000.84
2019-04-26T05:29:12.531Z,1000.85
2019-04-26T05:32:12.514Z,1000.99
2019-04-26T05:35:12.483Z,1001.03
2019-04-26T05:38:18.277Z,1001.09
2019-04-26T05:41:13.413Z,1001.11
2019-04-26T05:44:12.373Z,1001.17
2019-04-26T05:47:12.349Z,1001.23
2019-04-26T05:50:12.323Z,1001.19
2019-04-26T05:53:12.289Z,1001.19
2019-04-26T05:56:12.246Z,1001.21
2019-04-26T05:59:12.218Z,1001.13
2019-04-26T06:02:12.187Z,1001.08
2019-04-26T06:05:12.142Z,1000.99
2019-04-26T06:08:12.118Z,1001.05
2019-04-26T06:11:12.089Z,1001.13
2019-04-26T06:14:12.064Z,1001.12
2019-04-26T06:17:12.009Z,1001.13
2019-04-26T06:20:22.255Z,1001.33
2019-04-26T06:23:12.954Z,1001.35
2019-04-26T06:26:11.918Z,1001.44
2019-04-26T06:29:11.898Z,1001.49
2019-04-26T06:32:11.868Z,1001.34
2019-04-26T06:35:11.827Z,1001.47
2019-04-26T06:38:11.785Z,1001.51
2019-04-26T06:41:11.765Z,1001.56
2019-04-26T06:44:11.725Z,1001.71
2019-04-26T06:47:11.709Z,1001.74
2019-04-26T06:50:11.672Z,1001.77
2019-04-26T06:53:11.625Z,1001.65
2019-04-26T06:56:11.602Z,1001.70
2019-04-26T06:59:11.575Z,1001.75
2019-04-26T07:02:11.542Z,1001.75
2019-04-26T07:05:12.226Z,1001.72
2019-04-26T07:08:12.625Z,1001.65
2019-04-26T07:11:11.783Z,1001.63
2019-04-26T07:14:19.035Z,1001.71
2019-04-26T07:17:12.235Z,1001.79
2019-04-26T07:20:11.597Z,1001.93
2019-04-26T07:23:11.313Z,1002.05
2019-04-26T07:26:11.275Z,1002.07
2019-04-26T07:29:11.328Z,1002.09
2019-04-26T07:32:11.585Z,1002.16
2019-04-26T07:35:11.204Z,1002.18
2019-04-26T07:38:11.201Z,1002.11
2019-04-26T07:41:11.480Z,1002.10
2019-04-26T07:44:11.830Z,1002.08
2019-04-26T07:47:13.864Z,1002.16
2019-04-26T07:50:11.500Z,1002.15
2019-04-26T07:53:11.343Z,1002.16
2019-04-26T07:56:11.366Z,1002.10
2019-04-26T07:59:10.938Z,1002.08
2019-04-26T08:02:11.221Z,1001.95
2019-04-26T08:05:11.471Z,1001.95
2019-04-26T08:08:10.953Z,1001.93
2019-04-26T08:11:12.825Z,1001.94
2019-04-26T08:14:10.805Z,1002.09
2019-04-26T08:17:10.719Z,1002.51
2019-04-26T08:20:11.429Z,1002.52
2019-04-26T08:23:28.186Z,1002.60
2019-04-26T08:26:11.641Z,1002.59
2019-04-26T08:29:10.654Z,1002.58
2019-04-26T08:32:11.409Z,1002.51
2019-04-26T08:35:16.819Z,1002.56
2019-04-26T08:38:16.005Z,1002.65
2019-04-26T08:41:11.667Z,1002.72
2019-04-26T08:44:11.237Z,1002.80
2019-04-26T08:47:14.257Z,1002.80
2019-04-26T08:50:13.688Z,1002.73
2019-04-26T08:53:10.343Z,1002.77
2019-04-26T08:56:11.630Z,1002.92
2019-04-26T08:59:10.270Z,1002.89
2019-04-26T09:02:10.246Z,1002.91
2019-04-26T09:05:10.198Z,1002.91
2019-04-26T09:08:10.191Z,1003.09
2019-04-26T09:11:22.547Z,1003.19
2019-04-26T09:14:11.122Z,1003.21
2019-04-26T09:17:10.087Z,1003.20
2019-04-26T09:20:10.039Z,1003.19
2019-04-26T09:23:10.039Z,1003.18
2019-04-26T09:26:12.503Z,1003.10
2019-04-26T09:29:09.950Z,1003.18
2019-04-26T09:32:09.914Z,1003.21
2019-04-26T09:35:11.342Z,1003.28
2019-04-26T09:38:10.849Z,1003.22
2019-04-26T09:41:09.828Z,1003.21
2019-04-26T09:44:09.775Z,1003.15
2019-04-26T09:47:09.759Z,1003.31
2019-04-26T09:50:11.242Z,1003.38
2019-04-26T09:53:10.699Z,1003.33
2019-04-26T09:56:09.660Z,1003.34
2019-04-26T09:59:09.623Z,1003.45
2019-04-26T10:02:09.599Z,1003.46
2019-04-26T10:05:12.173Z,1003.56
2019-04-26T10:08:13.091Z,1003.47
2019-04-26T10:11:10.729Z,1003.41
2019-04-26T10:14:09.469Z,1003.38
2019-04-26T10:17:11.469Z,1003.35
2019-04-26T10:20:10.398Z,1003.42
2019-04-26T10:23:09.371Z,1003.40
2019-04-26T10:26:09.325Z,1003.32
2019-04-26T10:29:09.304Z,1003.22
2019-04-26T10:32:09.276Z,1003.11
2019-04-26T10:35:09.239Z,1003.16
2019-04-26T10:38:09.234Z,1003.20
2019-04-26T10:41:09.177Z,1003.17
2019-04-26T10:44:09.142Z,1003.17
2019-04-26T10:47:09.100Z,1003.11
2019-04-26T10:50:09.077Z,1003.27
2019-04-26T10:53:09.037Z,1003.28
2019-04-26T10:56:09.011Z,1003.41
2019-04-26T10:59:09.823Z,1003.39
2019-04-26T11:02:08.965Z,1003.42
2019-04-26T11:05:11.633Z,1003.47
2019-04-26T11:08:09.886Z,1003.44
2019-04-26T11:11:08.842Z,1003.35
2019-04-26T11:14:08.821Z,1003.36
2019-04-26T11:17:11.543Z,1003.43
2019-04-26T11:20:10.511Z,1003.43
2019-04-26T11:23:11.648Z,1003.54
2019-04-26T11:26:08.690Z,1003.48
2019-04-26T11:29:08.664Z,1003.56
2019-04-26T11:32:08.637Z,1003.48
2019-04-26T11:35:08.578Z,1003.46
2019-04-26T11:38:08.584Z,1003.61
2019-04-26T11:41:08.638Z,1003.50
2019-04-26T11:44:08.503Z,1003.50
2019-04-26T11:47:08.509Z,1003.42
2019-04-26T11:50:08.487Z,1003.30
2019-04-26T11:53:10.262Z,1003.35
2019-04-26T11:56:08.387Z,1003.38
2019-04-26T11:59:08.333Z,1003.46
2019-04-26T12:02:08.304Z,1003.48
2019-04-26T12:05:08.277Z,1003.58
2019-04-26T12:08:08.238Z,1003.56
2019-04-26T12:11:17.871Z,1003.55
2019-04-26T12:14:19.656Z,1003.60
2019-04-26T12:17:09.132Z,1003.60
2019-04-26T12:20:08.120Z,1003.73
2019-04-26T12:23:08.063Z,1003.61
2019-04-26T12:26:08.044Z,1003.64
2019-04-26T12:29:10.504Z,1003.61
2019-04-26T12:32:08.979Z,1003.56
2019-04-26T12:35:07.945Z,1003.46
2019-04-26T12:38:07.914Z,1003.56
2019-04-26T12:41:07.930Z,1003.61
2019-04-26T12:44:07.845Z,1003.70
2019-04-26T12:47:07.813Z,1003.72
2019-04-26T12:50:07.791Z,1003.76
2019-04-26T12:53:07.741Z,1003.82
2019-04-26T12:56:07.717Z,1003.80
2019-04-26T12:59:07.671Z,1003.74
2019-04-26T13:02:07.661Z,1003.71
2019-04-26T13:05:07.622Z,1003.63
2019-04-26T13:08:07.590Z,1003.64
2019-04-26T13:11:14.518Z,1003.71
2019-04-26T13:15:52.390Z,1003.69
2019-04-26T13:18:52.367Z,1003.61
2019-04-26T13:21:52.319Z,1003.58
2019-04-26T13:24:52.319Z,1003.66
2019-04-26T13:27:52.247Z,1003.68
2019-04-26T13:30:52.225Z,1003.69
2019-04-26T13:33:52.181Z,1003.71
2019-04-26T13:36:52.168Z,1003.74
2019-04-26T13:39:55.296Z,1003.73
2019-04-26T13:42:52.510Z,1003.59
2019-04-26T13:45:52.073Z,1003.62
2019-04-26T13:48:52.036Z,1003.72
2019-04-26T13:51:51.990Z,1003.81
2019-04-26T13:54:55.455Z,1003.78
2019-04-26T13:57:51.927Z,1003.81
2019-04-26T14:00:51.883Z,1003.77
2019-04-26T14:03:51.867Z,1003.72
2019-04-26T14:06:51.905Z,1003.79
2019-04-26T14:09:51.793Z,1003.74
2019-04-26T14:12:51.770Z,1003.72
2019-04-26T14:15:52.102Z,1003.77
2019-04-26T14:18:51.702Z,1003.80
2019-04-26T14:21:51.661Z,1003.82
2019-04-26T14:24:53.004Z,1003.87
2019-04-26T14:27:51.717Z,1003.92
2019-04-26T14:30:51.727Z,1003.96
2019-04-26T14:33:51.772Z,1003.89
2019-04-26T14:36:51.820Z,1003.99
2019-04-26T14:39:55.350Z,1004.03
2019-04-26T14:43:06.053Z,1004.05
2019-04-26T14:45:56.040Z,1004.06
2019-04-26T14:49:01.298Z,1004.09
2019-04-26T14:51:56.091Z,1004.07
2019-04-26T14:54:52.158Z,1004.09
2019-04-26T14:57:54.011Z,1004.08
2019-04-26T15:00:55.908Z,1004.09
2019-04-26T15:03:57.151Z,1004.06
2019-04-26T15:06:57.899Z,1004.04
2019-04-26T15:09:53.407Z,1004.01
2019-04-26T15:12:58.603Z,1004.09
2019-04-26T15:15:53.532Z,1004.09
2019-04-26T15:18:52.641Z,1004.03
2019-04-26T15:21:52.574Z,1004.05
2019-04-26T15:24:52.603Z,1004.04
2019-04-26T15:27:52.615Z,1004.10
2019-04-26T15:30:52.850Z,1004.09
2019-04-26T15:33:52.962Z,1004.07
2019-04-26T15:36:54.145Z,1004.01
2019-04-26T15:39:55.140Z,1004.03
2019-04-26T15:43:01.263Z,1004.05
2019-04-26T15:45:53.636Z,1004.08
2019-04-26T15:48:54.538Z,1004.05
2019-04-26T15:51:52.674Z,1004.09
2019-04-26T15:54:58.422Z,1004.15
2019-04-26T15:57:53.568Z,1004.10
2019-04-26T16:00:52.883Z,1004.08
2019-04-26T16:03:53.082Z,1004.08
2019-04-26T16:06:52.563Z,1004.04
2019-04-26T16:09:55.907Z,1004.12
2019-04-26T16:12:52.522Z,1004.11
2019-04-26T16:15:52.491Z,1004.20
2019-04-26T16:18:55.963Z,1004.13
2019-04-26T16:21:55.316Z,1004.04
2019-04-26T16:24:53.132Z,1003.99
2019-04-26T16:27:52.225Z,1004.04
2019-04-26T16:30:53.158Z,1004.14
2019-04-26T16:33:52.156Z,1004.06
2019-04-26T16:36:52.573Z,1004.15
2019-04-26T16:39:51.908Z,1004.16
2019-04-26T16:42:57.087Z,1004.10
2019-04-26T16:45:54.284Z,1004.15
2019-04-26T16:48:56.668Z,1004.11
2019-04-26T16:52:01.620Z,1004.21
2019-04-26T16:54:53.004Z,1004.22
2019-04-26T16:57:55.576Z,1004.22
2019-04-26T17:00:57.659Z,1004.22
2019-04-26T17:03:53.426Z,1004.23
2019-04-26T17:06:52.549Z,1004.13
2019-04-26T17:09:58.149Z,1004.09
2019-04-26T17:12:54.339Z,1004.05
2019-04-26T17:15:57.570Z,1004.01
2019-04-26T17:18:55.588Z,1003.93
2019-04-26T17:21:52.493Z,1003.92
2019-04-26T17:24:51.122Z,1004.00
2019-04-26T17:27:52.806Z,1003.98
2019-04-26T17:30:52.903Z,1004.01
2019-04-26T17:33:51.054Z,1004.02
2019-04-26T17:36:52.284Z,1003.96
2019-04-26T17:39:52.173Z,1003.92
2019-04-26T17:42:51.224Z,1004.01
2019-04-26T17:45:51.666Z,1004.01
2019-04-26T17:48:51.397Z,1004.13
2019-04-26T17:51:51.734Z,1004.21
2019-04-26T17:54:52.230Z,1004.35
2019-04-26T17:57:52.456Z,1004.44
2019-04-26T18:00:51.578Z,1004.46
2019-04-26T18:03:55.448Z,1004.43
2019-04-26T18:06:57.869Z,1004.32
2019-04-26T18:09:52.590Z,1004.29
2019-04-26T18:12:51.114Z,1004.21
2019-04-26T18:15:52.742Z,1004.04
2019-04-26T18:18:54.401Z,1004.01
2019-04-26T18:21:56.071Z,1004.03
2019-04-26T18:24:52.221Z,1004.19
2019-04-26T18:27:51.250Z,1004.49
2019-04-26T18:30:53.024Z,1004.54
2019-04-26T18:33:54.840Z,1004.58
2019-04-26T18:36:52.385Z,1004.78
2019-04-26T18:39:51.403Z,1004.77
2019-04-26T18:42:53.074Z,1004.68
2019-04-26T18:45:53.155Z,1004.56
2019-04-26T18:48:51.527Z,1004.42
2019-04-26T18:51:51.546Z,1004.45
2019-04-26T18:54:52.527Z,1004.50
2019-04-26T18:57:56.352Z,1004.44
2019-04-26T19:00:53.158Z,1004.53
2019-04-26T19:03:51.803Z,1004.53
2019-04-26T19:06:51.888Z,1004.60
2019-04-26T19:10:02.804Z,1004.61
2019-04-26T19:12:56.388Z,1004.76
2019-04-26T19:15:53.110Z,1004.83
2019-04-26T19:18:52.204Z,1004.80
2019-04-26T19:21:54.489Z,1004.86
2019-04-26T19:24:54.268Z,1004.92
2019-04-26T19:27:54.105Z,1004.86
2019-04-26T19:30:53.220Z,1004.80
2019-04-26T19:33:55.842Z,1004.82
2019-04-26T19:36:56.289Z,1004.82
2019-04-26T19:39:53.955Z,1004.87
2019-04-26T19:42:57.391Z,1004.82
2019-04-26T19:45:53.255Z,1004.81
2019-04-26T19:48:56.469Z,1004.86
2019-04-26T19:51:56.671Z,1004.90
2019-04-26T19:54:54.582Z,1004.87
2019-04-26T19:57:53.751Z,1004.85
2019-04-26T20:00:53.828Z,1004.89
2019-04-26T20:03:55.364Z,1004.87
2019-04-26T20:06:55.335Z,1004.84
2019-04-26T20:09:56.324Z,1004.93
2019-04-26T20:12:55.394Z,1004.87
2019-04-26T20:16:00.443Z,1004.89
2019-04-26T20:18:55.617Z,1004.85
2019-04-26T20:21:54.763Z,1004.87
2019-04-26T20:26:22.686Z,1004.91
2019-04-26T20:29:23.202Z,1004.88
2019-04-26T20:32:23.881Z,1004.91
2019-04-26T20:35:26.906Z,1004.92
2019-04-26T20:38:23.209Z,1004.93
2019-04-26T20:41:22.273Z,1004.85
2019-04-26T20:44:28.393Z,1004.81
2019-04-26T20:47:22.974Z,1004.76
2019-04-26T20:50:21.892Z,1004.71
2019-04-26T20:53:21.846Z,1004.80
2019-04-26T20:56:22.485Z,1004.78
2019-04-26T20:59:23.564Z,1004.76
2019-04-26T21:02:24.783Z,1004.74
2019-04-26T21:05:21.667Z,1004.73
2019-04-26T21:08:25.693Z,1004.67
2019-04-26T21:11:22.570Z,1004.69
2019-04-26T21:14:21.607Z,1004.63
2019-04-26T21:17:24.247Z,1004.61
2019-04-26T21:20:22.471Z,1004.64
2019-04-26T21:23:22.276Z,1004.61
2019-04-26T21:26:21.716Z,1004.62
2019-04-26T21:29:24.145Z,1004.64
2019-04-26T21:32:23.709Z,1004.61
2019-04-26T21:35:25.000Z,1004.62
2019-04-26T21:38:25.571Z,1004.62
2019-04-26T21:41:21.131Z,1004.72
2019-04-26T21:44:21.087Z,1004.68
2019-04-26T21:47:21.069Z,1004.59
2019-04-26T21:50:21.001Z,1004.57
2019-04-26T21:53:21.007Z,1004.48
2019-04-26T21:56:20.975Z,1004.54
2019-04-26T21:59:20.973Z,1004.50
2019-04-26T22:02:20.944Z,1004.49
2019-04-26T22:05:20.938Z,1004.45
2019-04-26T22:08:24.508Z,1004.43
2019-04-26T22:11:20.978Z,1004.43
2019-04-26T22:14:21.611Z,1004.45
2019-04-26T22:17:22.612Z,1004.42
2019-04-26T22:20:20.854Z,1004.35
2019-04-26T22:23:21.401Z,1004.40
2019-04-26T22:26:20.819Z,1004.47
2019-04-26T22:29:20.794Z,1004.43
2019-04-26T22:32:20.798Z,1004.45
2019-04-26T22:35:21.633Z,1004.50
2019-04-26T22:38:23.754Z,1004.55
2019-04-26T22:41:24.392Z,1004.56
2019-04-26T22:44:24.879Z,1004.56
2019-04-26T22:47:23.913Z,1004.61
2019-04-26T22:50:22.164Z,1004.56
2019-04-26T22:53:21.501Z,1004.57
2019-04-26T22:56:20.651Z,1004.60
2019-04-26T22:59:20.631Z,1004.63
2019-04-26T23:02:25.849Z,1004.63
2019-04-26T23:05:23.082Z,1004.58
2019-04-26T23:08:20.650Z,1004.54
2019-04-26T23:11:20.640Z,1004.61
2019-04-26T23:14:20.664Z,1004.48
2019-04-26T23:17:20.648Z,1004.49
2019-04-26T23:20:20.671Z,1004.55
2019-04-26T23:23:20.664Z,1004.58
2019-04-26T23:26:20.702Z,1004.60
2019-04-26T23:29:20.682Z,1004.57
2019-04-26T23:32:20.716Z,1004.54
2019-04-26T23:35:20.703Z,1004.51
2019-04-26T23:38:20.715Z,1004.53
2019-04-26T23:41:20.744Z,1004.50
2019-04-26T23:44:20.726Z,1004.50
2019-04-26T23:47:22.986Z,1004.46
2019-04-26T23:50:20.777Z,1004.37
2019-04-26T23:53:21.406Z,1004.36
2019-04-26T23:56:23.539Z,1004.40
2019-04-26T23:59:21.857Z,1004.42
